Time;durP1;ratioP1;P1;durP2;ratioP2;P2;SDS_P1;SDS_P2;PMS_P1;PMS_P2;Temp;Humidity;BMP_temperature;BMP_pressure;BME280_temperature;BME280_humidity;BME280_pressure;Samples;Min_cycle;Max_cycle;Signal;HPM_P1;HPM_P2
2021/05/23 00:00:37;;;;;;;0.52;0.30;;;18.10;46.80;;;;;;6277403;28;20457;-76
2021/05/23 00:03:38;;;;;;;0.55;0.30;;;18.00;47.60;;;;;;6280963;28;20067;-75
2021/05/23 00:06:39;;;;;;;1.10;0.20;;;18.00;46.30;;;;;;6264926;28;20035;-76
2021/05/23 00:09:41;;;;;;;0.03;0.00;;;17.90;46.20;;;;;;6281205;28;20047;-76
2021/05/23 00:12:42;;;;;;;0.75;0.20;;;18.00;45.80;;;;;;6281255;28;20032;-76
2021/05/23 00:15:56;;;;;;;2.47;0.15;;;18.00;44.60;;;;;;6281270;28;20051;-76
2021/05/23 00:18:57;;;;;;;0.30;0.13;;;18.00;45.10;;;;;;6274507;28;20508;-76
2021/05/23 00:21:58;;;;;;;1.65;0.10;;;18.00;46.10;;;;;;6280900;28;20033;-76
2021/05/23 00:24:59;;;;;;;0.30;0.30;;;17.90;45.70;;;;;;6278683;28;20117;-76
2021/05/23 00:28:00;;;;;;;1.95;0.40;;;17.90;45.60;;;;;;6279087;28;20058;-75
2021/05/23 00:31:03;;;;;;;1.65;0.52;;;17.90;45.90;;;;;;6262855;28;20044;-75
2021/05/23 00:34:04;;;;;;;0.50;0.30;;;17.90;46.00;;;;;;6295958;28;20036;-76
2021/05/23 00:37:05;;;;;;;0.47;0.30;;;17.90;45.90;;;;;;6279566;28;20075;-76
2021/05/23 00:40:07;;;;;;;0.10;0.10;;;17.90;46.20;;;;;;6297275;28;20097;-76
2021/05/23 00:43:11;;;;;;;5.15;0.28;;;17.90;46.00;;;;;;6279651;28;20032;-76
2021/05/23 00:46:12;;;;;;;1.42;0.40;;;17.80;44.40;;;;;;6294853;28;20480;-75
2021/05/23 00:49:13;;;;;;;1.00;0.20;;;17.90;44.40;;;;;;6274307;28;20037;-76
2021/05/23 00:52:14;;;;;;;2.72;0.43;;;17.90;45.00;;;;;;6262349;28;20060;-76
2021/05/23 00:55:16;;;;;;;3.20;0.57;;;17.90;44.40;;;;;;6262669;28;20123;-76
2021/05/23 00:58:18;;;;;;;0.20;0.20;;;17.90;44.40;;;;;;6279575;28;20178;-75
2021/05/23 01:01:55;;;;;;;0.10;0.10;;;17.90;44.30;;;;;;6303709;28;20039;-76
2021/05/23 01:04:56;;;;;;;1.27;0.35;;;18.00;45.20;;;;;;6145162;28;20539;-76
2021/05/23 01:07:57;;;;;;;0.20;0.20;;;18.00;44.70;;;;;;6168112;28;20086;-76
2021/05/23 01:11:05;;;;;;;0.77;0.32;;;18.00;44.60;;;;;;6168404;28;20445;-75
2021/05/23 01:14:42;;;;;;;1.55;0.20;;;18.00;44.30;;;;;;6126623;28;20126;-76
2021/05/23 01:17:46;;;;;;;0.08;0.08;;;18.00;44.10;;;;;;6165875;28;20039;-76
2021/05/23 01:20:58;;;;;;;0.20;0.20;;;18.00;44.10;;;;;;6167536;28;20038;-76
2021/05/23 01:24:09;;;;;;;1.88;0.43;;;18.00;44.10;;;;;;6168130;28;20031;-76
2021/05/23 01:27:12;;;;;;;0.60;0.17;;;18.00;44.40;;;;;;6167741;28;20039;-76
2021/05/23 01:30:34;;;;;;;0.95;0.47;;;18.00;44.80;;;;;;6167878;28;20078;-76
2021/05/23 01:33:35;;;;;;;1.27;0.20;;;18.00;44.80;;;;;;6167146;28;20043;-76
2021/05/23 01:36:41;;;;;;;0.15;0.15;;;18.00;44.70;;;;;;6167616;28;20135;-76
2021/05/23 01:39:42;;;;;;;0.32;0.10;;;18.00;44.70;;;;;;6201955;28;20040;-76
2021/05/23 01:42:45;;;;;;;1.10;0.52;;;18.00;44.80;;;;;;6250097;28;20446;-77
2021/05/23 01:45:46;;;;;;;0.20;0.20;;;18.00;44.80;;;;;;6270925;28;20059;-75
2021/05/23 01:48:48;;;;;;;2.58;0.32;;;18.00;44.70;;;;;;6262723;28;20101;-75
2021/05/23 01:51:49;;;;;;;0.70;0.30;;;18.00;44.70;;;;;;6270414;28;20418;-75
2021/05/23 01:54:50;;;;;;;0.52;0.28;;;18.00;44.80;;;;;;6297418;28;20033;-77
2021/05/23 01:57:51;;;;;;;0.28;0.28;;;18.00;44.90;;;;;;6296748;28;20033;-76
2021/05/23 02:00:53;;;;;;;0.20;0.20;;;18.00;44.90;;;;;;6279149;28;20033;-76
2021/05/23 02:04:00;;;;;;;1.70;0.20;;;17.90;44.80;;;;;;6296915;28;20101;-75
2021/05/23 02:07:02;;;;;;;0.20;0.20;;;17.90;45.10;;;;;;6269863;28;20044;-75
2021/05/23 02:10:12;;;;;;;0.30;0.20;;;17.90;45.10;;;;;;6271198;28;20041;-76
2021/05/23 02:13:14;;;;;;;0.57;0.20;;;17.80;44.80;;;;;;6268710;28;20036;-77
2021/05/23 02:16:15;;;;;;;0.73;0.30;;;17.90;44.80;;;;;;6300129;28;20033;-76
2021/05/23 02:19:16;;;;;;;0.20;0.20;;;17.80;44.80;;;;;;6257009;28;20040;-77
2021/05/23 02:22:17;;;;;;;0.85;0.28;;;17.90;44.80;;;;;;6277119;28;20036;-76
2021/05/23 02:25:20;;;;;;;0.98;0.30;;;17.90;45.00;;;;;;6292805;28;20036;-75
2021/05/23 02:28:21;;;;;;;0.60;0.35;;;17.90;45.30;;;;;;6296298;28;20062;-75
2021/05/23 02:31:22;;;;;;;0.65;0.28;;;17.80;45.60;;;;;;6295784;28;20480;-76
2021/05/23 02:34:27;;;;;;;3.35;0.38;;;17.80;45.80;;;;;;6278553;28;20028;-76
2021/05/23 02:37:28;;;;;;;4.40;0.40;;;17.70;46.00;;;;;;6279779;28;20040;-77
2021/05/23 02:40:32;;;;;;;0.38;0.30;;;17.60;46.20;;;;;;6279356;28;20505;-76
2021/05/23 02:43:33;;;;;;;0.45;0.13;;;17.60;46.40;;;;;;6295743;28;20504;-76
2021/05/23 02:46:36;;;;;;;0.28;0.28;;;17.50;46.80;;;;;;6293898;28;20043;-76
2021/05/23 02:49:42;;;;;;;0.30;0.22;;;17.50;47.00;;;;;;6275528;28;20045;-76
2021/05/23 02:52:43;;;;;;;0.95;0.30;;;17.40;47.40;;;;;;6271615;28;20094;-76
2021/05/23 02:55:47;;;;;;;0.30;0.30;;;17.40;47.50;;;;;;6275253;28;20350;-77
2021/05/23 02:58:48;;;;;;;0.85;0.50;;;17.30;47.90;;;;;;6295371;28;20040;-76
2021/05/23 03:01:49;;;;;;;0.60;0.25;;;17.20;48.40;;;;;;6244395;28;20033;-76
2021/05/23 03:04:50;;;;;;;0.57;0.30;;;17.10;48.80;;;;;;6237651;28;20033;-76
2021/05/23 03:07:54;;;;;;;2.42;0.45;;;17.10;49.00;;;;;;6283976;28;20464;-77
2021/05/23 03:10:55;;;;;;;3.60;0.55;;;17.00;49.10;;;;;;6278735;28;20036;-76
2021/05/23 03:13:57;;;;;;;2.80;0.57;;;17.00;49.40;;;;;;6295425;28;20449;-76
2021/05/23 03:16:58;;;;;;;0.20;0.20;;;16.90;49.40;;;;;;6294643;28;20041;-76
2021/05/23 03:19:59;;;;;;;0.35;0.30;;;16.90;49.60;;;;;;6251973;28;20051;-75
2021/05/23 03:23:00;;;;;;;0.32;0.22;;;16.90;49.90;;;;;;6278634;28;20040;-76
2021/05/23 03:26:01;;;;;;;0.68;0.40;;;16.90;50.20;;;;;;6277325;28;20041;-76
2021/05/23 03:29:03;;;;;;;2.28;0.65;;;16.90;50.70;;;;;;6276695;28;20492;-76
2021/05/23 03:32:04;;;;;;;1.30;0.43;;;16.80;50.80;;;;;;6277172;28;20115;-75
2021/05/23 03:35:08;;;;;;;1.38;0.25;;;16.80;50.90;;;;;;6279098;28;20450;-75
2021/05/23 03:38:11;;;;;;;0.95;0.47;;;16.70;50.90;;;;;;6278975;28;20052;-76
2021/05/23 03:41:14;;;;;;;0.38;0.20;;;16.70;51.00;;;;;;6265804;28;20124;-75
2021/05/23 03:44:17;;;;;;;0.60;0.25;;;16.70;51.10;;;;;;6289130;28;20357;-77
2021/05/23 03:47:18;;;;;;;0.60;0.38;;;16.60;51.00;;;;;;6293668;28;20038;-76
2021/05/23 03:50:22;;;;;;;0.57;0.30;;;16.60;51.00;;;;;;6258721;28;20400;-76
2021/05/23 03:53:23;;;;;;;2.55;0.40;;;16.60;51.00;;;;;;6274451;28;20037;-77
2021/05/23 03:56:25;;;;;;;0.57;0.50;;;16.60;51.50;;;;;;6298481;28;20119;-75
2021/05/23 03:59:26;;;;;;;2.60;0.65;;;16.70;51.70;;;;;;6298213;28;20047;-75
2021/05/23 04:02:27;;;;;;;1.85;0.50;;;16.60;51.70;;;;;;6270533;28;20090;-76
2021/05/23 04:05:29;;;;;;;1.85;0.22;;;16.60;51.70;;;;;;6297511;28;20410;-76
2021/05/23 04:08:30;;;;;;;0.63;0.28;;;16.60;51.50;;;;;;6270614;28;20056;-76
2021/05/23 04:11:38;;;;;;;0.20;0.20;;;16.60;52.00;;;;;;6273480;28;20349;-76
2021/05/23 04:14:39;;;;;;;1.80;0.25;;;16.60;51.30;;;;;;6297965;28;20119;-76
2021/05/23 04:17:40;;;;;;;0.30;0.30;;;16.70;51.20;;;;;;6297639;28;20479;-76
2021/05/23 04:20:42;;;;;;;0.10;0.10;;;16.70;51.10;;;;;;6296005;28;20048;-76
2021/05/23 04:23:43;;;;;;;1.00;0.40;;;16.70;51.00;;;;;;6280586;28;20029;-76
2021/05/23 04:26:44;;;;;;;0.50;0.30;;;16.70;51.00;;;;;;6279267;28;20033;-78
2021/05/23 04:29:45;;;;;;;0.93;0.50;;;16.70;51.70;;;;;;6257360;28;20037;-75
2021/05/23 04:32:47;;;;;;;0.55;0.30;;;16.60;51.10;;;;;;6257534;28;20049;-77
2021/05/23 04:40:11;;;;;;;;;;;16.40;50.00;;;;;;6238822;28;20054;-75
2021/05/23 04:43:13;;;;;;;2.00;0.70;;;16.40;50.00;;;;;;6240134;28;20327;-76
2021/05/23 04:46:14;;;;;;;6.85;0.80;;;16.30;49.60;;;;;;6263870;28;20034;-76
2021/05/23 04:49:15;;;;;;;2.92;0.30;;;16.30;49.60;;;;;;6233907;28;20382;-76
2021/05/23 04:52:16;;;;;;;0.30;0.30;;;16.30;49.40;;;;;;6239804;28;20041;-76
2021/05/23 04:55:17;;;;;;;2.28;0.52;;;16.40;49.20;;;;;;6257960;28;20033;-76
2021/05/23 04:58:20;;;;;;;0.70;0.38;;;16.40;49.00;;;;;;6247687;28;20045;-76
2021/05/23 05:01:21;;;;;;;1.17;0.32;;;16.50;49.00;;;;;;6248377;28;20033;-76
2021/05/23 05:04:22;;;;;;;0.45;0.40;;;16.60;48.90;;;;;;6247485;28;20092;-76
2021/05/23 05:07:23;;;;;;;1.08;0.40;;;16.70;48.50;;;;;;6248668;28;20087;-76
2021/05/23 05:10:24;;;;;;;2.67;0.52;;;16.70;48.00;;;;;;6264075;28;20201;-76
2021/05/23 05:13:25;;;;;;;1.08;0.43;;;16.80;47.70;;;;;;6254027;28;20051;-76
2021/05/23 05:16:27;;;;;;;0.20;0.20;;;16.80;47.60;;;;;;6249507;28;20041;-76
2021/05/23 05:19:28;;;;;;;2.15;0.50;;;16.90;47.60;;;;;;6248599;28;20485;-75
2021/05/23 05:22:29;;;;;;;0.77;0.50;;;17.20;47.40;;;;;;6252435;28;20041;-76
2021/05/23 05:25:30;;;;;;;0.20;0.20;;;17.10;47.40;;;;;;6253217;28;20482;-76
2021/05/23 05:28:31;;;;;;;1.38;0.20;;;17.40;47.60;;;;;;6251762;28;20038;-77
2021/05/23 05:31:33;;;;;;;0.28;0.15;;;17.30;47.50;;;;;;6266080;28;20136;-76
2021/05/23 05:34:34;;;;;;;1.55;0.20;;;17.40;47.60;;;;;;6276551;28;20120;-75
2021/05/23 05:37:35;;;;;;;0.25;0.20;;;17.50;47.50;;;;;;6269608;28;20086;-75
2021/05/23 05:40:36;;;;;;;3.05;0.30;;;17.50;46.90;;;;;;6256610;28;20539;-77
2021/05/23 05:43:37;;;;;;;2.55;0.30;;;17.40;46.80;;;;;;6261881;28;20033;-77
2021/05/23 05:46:38;;;;;;;1.30;0.40;;;17.40;46.60;;;;;;6296093;28;20075;-76
2021/05/23 05:49:39;;;;;;;2.20;0.40;;;17.40;46.60;;;;;;6277905;28;20045;-78
2021/05/23 05:52:41;;;;;;;2.00;0.40;;;17.30;46.70;;;;;;6275754;28;20094;-78
2021/05/23 05:55:42;;;;;;;2.35;0.60;;;17.30;46.70;;;;;;6276692;28;20072;-78
2021/05/23 05:58:43;;;;;;;4.80;0.60;;;17.20;46.70;;;;;;6276477;28;20036;-78
2021/05/23 06:01:45;;;;;;;1.65;0.43;;;17.30;46.80;;;;;;6259750;28;20029;-78
2021/05/23 06:04:46;;;;;;;2.05;0.30;;;17.30;46.60;;;;;;6275574;28;20474;-77
2021/05/23 06:07:47;;;;;;;0.77;0.10;;;17.40;46.40;;;;;;6292781;28;20059;-77
2021/05/23 06:10:49;;;;;;;3.72;0.30;;;17.50;46.20;;;;;;6259340;28;20044;-78
2021/05/23 06:13:50;;;;;;;0.20;0.20;;;17.50;46.20;;;;;;6292791;28;20047;-76
2021/05/23 06:16:51;;;;;;;0.20;0.17;;;17.50;46.80;;;;;;6273385;28;20492;-75
2021/05/23 06:19:52;;;;;;;0.30;0.25;;;17.50;47.10;;;;;;6259107;28;20120;-75
2021/05/23 06:22:53;;;;;;;0.28;0.28;;;17.60;47.40;;;;;;6263964;28;20032;-75
2021/05/23 06:25:54;;;;;;;0.47;0.10;;;17.60;47.50;;;;;;6275312;28;20049;-76
2021/05/23 06:28:55;;;;;;;0.20;0.17;;;17.70;47.50;;;;;;6275457;28;20378;-76
2021/05/23 06:31:56;;;;;;;2.38;0.20;;;17.70;47.40;;;;;;6291218;28;20354;-76
2021/05/23 06:34:57;;;;;;;0.10;0.10;;;17.80;47.10;;;;;;6265626;28;20029;-76
2021/05/23 06:37:58;;;;;;;0.10;0.10;;;17.90;46.80;;;;;;6291437;28;20049;-76
2021/05/23 06:41:00;;;;;;;1.48;0.28;;;18.00;46.60;;;;;;6275165;28;20354;-77
2021/05/23 06:44:01;;;;;;;0.57;0.32;;;18.00;46.30;;;;;;6290833;28;20040;-75
2021/05/23 06:47:03;;;;;;;2.88;0.60;;;18.10;46.20;;;;;;6275219;28;20040;-75
2021/05/23 06:50:05;;;;;;;0.75;0.32;;;18.20;46.10;;;;;;6274694;28;20033;-75
2021/05/23 06:53:06;;;;;;;0.20;0.20;;;18.30;45.90;;;;;;6290994;28;20037;-77
2021/05/23 06:56:07;;;;;;;0.98;0.40;;;18.50;45.80;;;;;;6274810;28;20457;-76
2021/05/23 06:59:08;;;;;;;0.63;0.25;;;18.70;45.50;;;;;;6274419;28;20029;-76
2021/05/23 07:02:09;;;;;;;1.35;0.43;;;19.20;44.80;;;;;;6251937;28;20462;-74
2021/05/23 07:05:11;;;;;;;1.42;0.30;;;19.80;43.70;;;;;;6274696;28;20029;-75
2021/05/23 07:08:12;;;;;;;0.98;0.32;;;20.40;42.10;;;;;;6258211;28;20128;-76
2021/05/23 07:11:13;;;;;;;1.35;0.40;;;20.80;40.60;;;;;;6275071;28;20517;-75
2021/05/23 07:14:15;;;;;;;7.78;1.05;;;20.90;40.00;;;;;;6266721;28;20120;-76
2021/05/23 07:17:16;;;;;;;1.13;0.30;;;20.90;40.00;;;;;;6258053;28;20033;-75
2021/05/23 07:20:17;;;;;;;3.53;0.30;;;20.90;39.70;;;;;;6259642;28;20407;-76
2021/05/23 07:23:19;;;;;;;0.65;0.30;;;20.80;39.70;;;;;;6281970;28;20370;-76
2021/05/23 07:26:20;;;;;;;1.10;0.40;;;20.70;39.60;;;;;;6257405;28;20029;-75
2021/05/23 07:29:21;;;;;;;9.88;0.95;;;20.70;39.60;;;;;;6257483;28;20041;-76
2021/05/23 07:32:22;;;;;;;1.08;0.40;;;20.60;39.50;;;;;;6274537;28;20080;-77
2021/05/23 07:35:23;;;;;;;0.30;0.30;;;20.60;39.90;;;;;;6274487;28;20033;-76
2021/05/23 07:38:26;;;;;;;0.77;0.20;;;20.50;40.30;;;;;;6273929;28;20055;-76
2021/05/23 07:41:27;;;;;;;0.40;0.20;;;20.70;40.60;;;;;;6283861;28;20520;-75
2021/05/23 07:44:28;;;;;;;1.58;0.25;;;20.70;40.30;;;;;;6251899;28;20082;-76
2021/05/23 07:47:29;;;;;;;2.72;0.40;;;20.70;39.00;;;;;;6269719;28;20458;-76
2021/05/23 07:50:30;;;;;;;2.17;0.38;;;20.60;38.70;;;;;;6281981;28;20041;-76
2021/05/23 07:53:31;;;;;;;4.45;0.40;;;20.70;38.10;;;;;;6250611;28;20107;-77
2021/05/23 07:56:33;;;;;;;1.25;0.30;;;20.90;37.50;;;;;;6263882;28;20132;-77
2021/05/23 07:59:35;;;;;;;1.77;0.40;;;21.00;37.10;;;;;;6274133;28;20040;-76
2021/05/23 08:02:36;;;;;;;0.50;0.30;;;21.00;37.10;;;;;;6272931;28;20546;-76
2021/05/23 08:05:37;;;;;;;1.10;0.50;;;21.00;37.30;;;;;;6258992;28;20020;-76
2021/05/23 08:08:38;;;;;;;0.82;0.32;;;20.80;37.20;;;;;;6278092;28;20136;-76
2021/05/23 08:11:40;;;;;;;1.45;0.40;;;20.60;37.50;;;;;;6256784;28;20041;-76
2021/05/23 08:14:41;;;;;;;2.15;0.50;;;20.50;37.70;;;;;;6272677;28;20029;-76
2021/05/23 08:17:45;;;;;;;1.35;0.32;;;20.40;37.80;;;;;;6272781;28;20033;-77
2021/05/23 08:20:48;;;;;;;1.05;0.40;;;20.30;37.90;;;;;;6267358;28;20037;-76
2021/05/23 08:23:49;;;;;;;1.17;0.50;;;20.10;38.20;;;;;;6271907;28;20041;-78
2021/05/23 08:26:50;;;;;;;1.48;0.65;;;20.00;38.50;;;;;;6272008;28;20108;-77
2021/05/23 08:29:51;;;;;;;7.57;1.60;;;20.10;38.50;;;;;;6256649;28;20045;-77
2021/05/23 08:32:52;;;;;;;2.20;0.30;;;20.10;38.30;;;;;;6280776;28;20385;-77
2021/05/23 08:35:54;;;;;;;1.33;0.70;;;20.20;38.00;;;;;;6279262;28;20033;-76
2021/05/23 08:38:56;;;;;;;3.35;0.40;;;20.20;38.00;;;;;;6280982;28;20032;-77
2021/05/23 08:41:57;;;;;;;1.15;0.47;;;20.20;37.30;;;;;;6281078;28;20029;-78
2021/05/23 08:44:59;;;;;;;2.08;0.30;;;20.20;37.00;;;;;;6280564;28;20469;-76
2021/05/23 08:48:00;;;;;;;2.55;0.50;;;20.20;36.70;;;;;;6280515;28;20108;-76
2021/05/23 08:51:02;;;;;;;0.60;0.40;;;20.30;36.40;;;;;;6276938;28;20044;-76
2021/05/23 08:54:03;;;;;;;5.32;0.70;;;20.30;36.50;;;;;;6253683;28;20033;-76
2021/05/23 08:57:04;;;;;;;0.22;0.20;;;20.30;36.60;;;;;;6280346;28;20473;-75
2021/05/23 09:00:06;;;;;;;1.23;0.50;;;20.30;36.20;;;;;;6298037;28;20111;-75
2021/05/23 09:03:11;;;;;;;0.90;0.40;;;20.40;36.20;;;;;;6280227;28;20037;-77
2021/05/23 09:06:29;;;;;;;0.60;0.20;;;20.50;36.20;;;;;;6297155;28;20036;-76
2021/05/23 09:09:45;;;;;;;2.13;0.70;;;20.60;35.70;;;;;;6282883;28;20117;-76
2021/05/23 09:12:47;;;;;;;1.75;0.40;;;20.60;35.50;;;;;;6294878;28;20032;-76
2021/05/23 09:15:57;;;;;;;2.05;0.50;;;20.80;35.40;;;;;;6295117;28;20037;-76
2021/05/23 09:18:59;;;;;;;0.57;0.40;;;20.90;35.20;;;;;;6294955;28;20044;-76
2021/05/23 09:22:11;;;;;;;0.40;0.17;;;21.00;35.00;;;;;;6277405;28;20170;-76
2021/05/23 09:25:13;;;;;;;0.68;0.32;;;21.00;35.00;;;;;;6295761;28;20036;-76
2021/05/23 09:28:14;;;;;;;0.63;0.30;;;21.00;35.10;;;;;;6278645;28;20044;-76
2021/05/23 09:31:23;;;;;;;0.20;0.20;;;20.90;35.00;;;;;;6295171;28;20037;-77
2021/05/23 09:34:27;;;;;;;1.25;0.25;;;20.90;35.10;;;;;;6254372;28;20044;-77
2021/05/23 09:37:29;;;;;;;4.00;0.30;;;20.90;35.10;;;;;;6271067;28;20446;-76
2021/05/23 09:40:36;;;;;;;1.15;0.32;;;20.90;34.80;;;;;;6271080;28;20119;-76
2021/05/23 09:43:38;;;;;;;5.53;0.60;;;20.90;34.80;;;;;;6295547;28;20116;-76
2021/05/23 09:46:50;;;;;;;0.85;0.30;;;21.00;35.00;;;;;;6290152;28;20415;-78
2021/05/23 09:49:56;;;;;;;1.02;0.40;;;21.00;35.50;;;;;;6280142;28;20036;-76
2021/05/23 09:52:57;;;;;;;1.05;0.30;;;21.10;34.90;;;;;;6297016;28;20056;-76
2021/05/23 09:56:03;;;;;;;0.57;0.20;;;21.10;34.80;;;;;;6295641;28;20064;-76
2021/05/23 09:59:16;;;;;;;2.05;0.40;;;21.20;34.80;;;;;;6296155;28;20037;-76
2021/05/23 10:02:17;;;;;;;0.85;0.38;;;21.30;34.40;;;;;;6279413;28;20465;-77
2021/05/23 10:05:19;;;;;;;0.65;0.40;;;21.40;34.20;;;;;;6279678;28;20170;-77
2021/05/23 10:08:21;;;;;;;1.90;0.40;;;21.50;34.10;;;;;;6289971;28;20051;-76
2021/05/23 10:11:22;;;;;;;1.35;0.50;;;21.50;34.20;;;;;;6288407;28;20025;-77
2021/05/23 10:14:24;;;;;;;0.93;0.32;;;21.70;34.20;;;;;;6301134;28;20439;-75
2021/05/23 10:17:25;;;;;;;1.33;0.43;;;21.70;34.00;;;;;;6300087;28;20041;-76
2021/05/23 10:20:27;;;;;;;1.00;0.40;;;21.80;33.90;;;;;;6292868;28;20056;-76
2021/05/23 10:23:32;;;;;;;2.47;0.60;;;21.90;33.70;;;;;;6282722;28;20028;-77
2021/05/23 10:26:34;;;;;;;0.30;0.30;;;21.90;33.70;;;;;;6300882;28;20476;-77
2021/05/23 10:29:38;;;;;;;1.70;0.60;;;22.00;33.70;;;;;;6300199;28;20044;-76
2021/05/23 10:32:41;;;;;;;2.63;0.40;;;22.10;33.20;;;;;;6283240;28;20072;-76
2021/05/23 10:35:46;;;;;;;1.77;0.43;;;22.10;32.90;;;;;;6300445;28;20060;-77
2021/05/23 10:38:55;;;;;;;2.67;0.47;;;22.20;32.80;;;;;;6299129;28;20036;-76
2021/05/23 10:42:02;;;;;;;0.90;0.20;;;22.20;32.30;;;;;;6292399;28;20041;-77
2021/05/23 10:45:04;;;;;;;1.15;0.40;;;22.30;32.20;;;;;;6259159;28;20033;-76
2021/05/23 10:48:14;;;;;;;2.00;0.55;;;22.40;32.40;;;;;;6293676;28;20128;-77
2021/05/23 10:51:16;;;;;;;1.00;0.57;;;22.40;32.20;;;;;;6265044;28;20120;-77
2021/05/23 10:54:17;;;;;;;1.10;0.60;;;22.50;32.30;;;;;;6276586;28;20040;-76
2021/05/23 10:57:18;;;;;;;0.65;0.50;;;22.70;31.90;;;;;;6242163;28;20060;-77
2021/05/23 11:00:31;;;;;;;1.00;0.40;;;23.40;30.90;;;;;;6283140;28;20093;-77
2021/05/23 11:03:32;;;;;;;0.90;0.40;;;24.70;29.60;;;;;;6299488;28;20390;-77
2021/05/23 11:06:34;;;;;;;1.02;0.52;;;26.00;28.40;;;;;;6282164;28;20028;-77
2021/05/23 11:09:36;;;;;;;0.85;0.45;;;27.10;27.40;;;;;;6299363;28;20492;-77
2021/05/23 11:12:50;;;;;;;3.28;0.43;;;27.90;26.40;;;;;;6300246;28;20186;-76
2021/05/23 11:15:52;;;;;;;1.23;0.45;;;28.50;25.90;;;;;;6281227;28;20043;-76
2021/05/23 11:19:03;;;;;;;0.98;0.32;;;29.00;24.60;;;;;;6278656;28;20028;-76
2021/05/23 11:22:04;;;;;;;1.40;0.45;;;29.20;24.40;;;;;;6264818;28;20064;-76
2021/05/23 11:25:05;;;;;;;2.90;0.70;;;29.60;24.00;;;;;;6265650;28;20086;-76
2021/05/23 11:28:08;;;;;;;1.15;0.50;;;30.00;23.80;;;;;;6282155;28;20036;-76
2021/05/23 11:31:09;;;;;;;0.50;0.40;;;30.30;22.80;;;;;;6298871;28;20041;-76
2021/05/23 11:34:13;;;;;;;0.35;0.35;;;30.50;22.40;;;;;;6286597;28;20069;-77
2021/05/23 11:37:19;;;;;;;1.45;0.50;;;30.70;22.50;;;;;;6307241;28;20086;-78
2021/05/23 11:40:29;;;;;;;;;;;30.80;21.80;;;;;;6273764;28;20373;-76
2021/05/23 11:43:30;;;;;;;0.73;0.40;;;30.70;21.80;;;;;;6276318;28;19944;-77
2021/05/23 11:46:32;;;;;;;1.45;0.60;;;30.60;21.70;;;;;;6242256;28;20051;-78
2021/05/23 11:49:36;;;;;;;0.70;0.38;;;30.50;22.20;;;;;;6275542;28;20049;-77
2021/05/23 11:52:43;;;;;;;3.38;0.40;;;30.50;22.60;;;;;;6298874;28;20051;-77
2021/05/23 11:55:56;;;;;;;1.70;0.93;;;30.70;22.60;;;;;;6276618;28;20358;-77
2021/05/23 11:58:59;;;;;;;2.00;0.50;;;31.00;22.50;;;;;;6310899;28;20457;-76
2021/05/23 12:02:01;;;;;;;1.35;0.55;;;31.40;22.40;;;;;;6306423;28;20033;-78
2021/05/23 12:05:06;;;;;;;3.45;0.60;;;31.30;22.20;;;;;;6282600;28;20054;-77
2021/05/23 12:08:23;;;;;;;1.25;0.50;;;31.20;22.10;;;;;;6294728;28;20038;-77
2021/05/23 12:11:24;;;;;;;4.13;0.60;;;31.20;22.20;;;;;;6305891;28;20066;-76
2021/05/23 12:14:34;;;;;;;1.23;0.52;;;31.20;21.90;;;;;;6308033;28;20120;-77
2021/05/23 12:17:58;;;;;;;1.42;0.45;;;31.60;22.00;;;;;;6306556;28;20036;-78
2021/05/23 12:21:01;;;;;;;4.50;0.70;;;31.80;21.80;;;;;;6288539;28;20043;-76
2021/05/23 12:24:08;;;;;;;2.20;0.57;;;32.00;21.60;;;;;;6289810;28;20039;-76
2021/05/23 12:27:32;;;;;;;1.05;0.50;;;32.00;21.90;;;;;;6262234;28;20025;-77
2021/05/23 12:30:36;;;;;;;1.20;0.47;;;31.90;21.80;;;;;;6270281;28;20083;-77
2021/05/23 12:33:40;;;;;;;0.80;0.50;;;31.80;21.50;;;;;;6262991;28;20048;-77
2021/05/23 12:36:42;;;;;;;1.55;0.50;;;31.70;21.90;;;;;;6250900;28;20056;-76
2021/05/23 12:44:24;;;;;;;1.85;0.40;;;32.00;22.00;;;;;;6206360;28;20045;-76
2021/05/23 12:47:50;;;;;;;2.78;0.50;;;32.50;21.70;;;;;;6199252;28;20457;-78
2021/05/23 12:50:55;;;;;;;1.23;0.55;;;32.60;21.30;;;;;;6253121;28;20083;-77
2021/05/23 12:54:02;;;;;;;0.50;0.50;;;32.70;21.20;;;;;;6244536;28;20053;-78
2021/05/23 12:57:19;;;;;;;1.23;0.68;;;32.80;21.10;;;;;;6274520;28;20095;-77
2021/05/23 13:00:21;;;;;;;1.75;0.55;;;33.30;20.80;;;;;;6252952;28;20053;-77
2021/05/23 13:03:24;;;;;;;3.22;0.60;;;33.70;20.60;;;;;;6239183;28;20033;-76
2021/05/23 13:06:55;;;;;;;1.23;0.57;;;33.90;20.90;;;;;;6245935;28;20060;-77
2021/05/23 13:09:57;;;;;;;0.20;0.20;;;34.30;19.90;;;;;;6249370;28;20045;-79
2021/05/23 13:13:02;;;;;;;0.52;0.43;;;34.80;19.30;;;;;;6255469;28;20036;-77
2021/05/23 13:16:07;;;;;;;1.33;0.57;;;35.00;19.10;;;;;;6239999;28;20056;-77
2021/05/23 13:19:14;;;;;;;1.75;0.55;;;35.40;19.20;;;;;;6284432;28;20480;-77
2021/05/23 13:22:15;;;;;;;0.80;0.55;;;35.60;18.70;;;;;;6283103;28;20033;-76
2021/05/23 13:25:19;;;;;;;1.08;0.52;;;35.60;18.60;;;;;;6265248;28;21433;-77
2021/05/23 13:28:23;;;;;;;0.82;0.50;;;35.50;18.80;;;;;;6263786;28;20033;-78
2021/05/23 13:31:27;;;;;;;1.52;0.45;;;35.30;18.80;;;;;;6240418;28;20039;-77
2021/05/23 13:34:28;;;;;;;0.35;0.30;;;34.90;19.00;;;;;;6249257;28;20637;-78
2021/05/23 13:37:29;;;;;;;1.02;0.52;;;34.80;19.00;;;;;;6244817;28;20061;-78
2021/05/23 13:40:30;;;;;;;0.98;0.50;;;34.60;19.10;;;;;;6264740;28;20121;-76
2021/05/23 13:43:37;;;;;;;2.72;0.60;;;34.80;19.10;;;;;;6294158;28;20056;-78
2021/05/23 13:46:38;;;;;;;1.02;0.50;;;34.80;19.10;;;;;;6262544;28;20053;-79
2021/05/23 13:49:43;;;;;;;2.20;0.60;;;34.90;19.20;;;;;;6263815;28;20040;-77
2021/05/23 13:52:49;;;;;;;3.22;0.43;;;35.10;18.90;;;;;;6250395;28;20490;-78
2021/05/23 13:55:53;;;;;;;1.47;0.50;;;35.10;18.80;;;;;;6280853;28;20066;-77
2021/05/23 13:59:05;;;;;;;0.70;0.47;;;34.70;18.90;;;;;;6260348;28;20063;-78
2021/05/23 14:02:10;;;;;;;2.35;0.50;;;33.90;19.50;;;;;;6245721;28;20037;-79
2021/05/23 14:05:26;;;;;;;4.90;0.60;;;33.20;20.00;;;;;;6238725;28;20032;-77
2021/05/23 14:08:32;;;;;;;0.85;0.30;;;32.50;20.30;;;;;;6281575;28;20033;-79
2021/05/23 14:11:34;;;;;;;0.40;0.40;;;31.80;21.00;;;;;;6277594;28;20036;-77
2021/05/23 14:14:40;;;;;;;1.50;0.50;;;31.50;21.30;;;;;;6264325;28;20175;-77
2021/05/23 14:17:43;;;;;;;1.23;0.70;;;31.70;21.50;;;;;;6264927;28;20516;-77
2021/05/23 14:20:53;;;;;;;0.63;0.40;;;32.00;21.40;;;;;;6285773;28;20056;-80
2021/05/23 14:23:54;;;;;;;1.85;0.40;;;32.40;21.20;;;;;;6267995;28;20020;-77
2021/05/23 14:27:23;;;;;;;3.67;0.55;;;32.60;20.90;;;;;;6290428;28;20036;-77
2021/05/23 14:30:25;;;;;;;1.33;0.47;;;32.90;20.70;;;;;;6276352;28;20060;-78
2021/05/23 14:33:26;;;;;;;5.07;0.50;;;32.80;20.80;;;;;;6294071;28;20110;-77
2021/05/23 14:36:35;;;;;;;2.67;0.45;;;32.40;21.10;;;;;;6267256;28;20040;-78
2021/05/23 14:39:40;;;;;;;1.48;0.47;;;32.00;21.20;;;;;;6311508;28;20047;-78
2021/05/23 14:42:42;;;;;;;0.75;0.30;;;31.70;21.40;;;;;;6312701;28;20052;-78
2021/05/23 14:45:46;;;;;;;1.30;0.50;;;31.40;21.60;;;;;;6309621;28;20036;-78
2021/05/23 14:48:49;;;;;;;2.53;0.68;;;31.10;21.90;;;;;;6289669;28;20054;-77
2021/05/23 14:51:50;;;;;;;1.30;0.43;;;30.70;22.30;;;;;;6288959;28;20033;-76
2021/05/23 14:54:53;;;;;;;0.57;0.40;;;30.30;23.20;;;;;;6268590;28;20055;-76
2021/05/23 14:57:58;;;;;;;1.52;0.50;;;29.80;23.10;;;;;;6260178;28;20037;-77
2021/05/23 15:01:04;;;;;;;1.73;0.40;;;29.50;23.50;;;;;;6254440;28;20033;-77
2021/05/23 15:04:08;;;;;;;2.17;0.50;;;29.10;23.80;;;;;;6274770;28;20473;-76
2021/05/23 15:07:09;;;;;;;0.50;0.30;;;28.80;24.10;;;;;;6282947;28;20086;-77
2021/05/23 15:10:14;;;;;;;1.52;0.73;;;28.60;24.40;;;;;;6267600;28;20170;-77
2021/05/23 15:13:16;;;;;;;1.15;0.70;;;28.30;24.60;;;;;;6274080;28;20036;-77
2021/05/23 15:16:20;;;;;;;2.80;0.75;;;28.20;24.90;;;;;;6288666;28;20051;-76
2021/05/23 15:19:24;;;;;;;1.20;0.50;;;28.20;24.90;;;;;;6291090;28;20047;-77
2021/05/23 15:22:28;;;;;;;0.98;0.47;;;28.30;24.80;;;;;;6310246;28;20470;-76
2021/05/23 15:25:36;;;;;;;0.45;0.30;;;28.40;24.70;;;;;;6290372;28;20065;-75
2021/05/23 15:31:57;;;;;;;;;;;28.70;24.50;;;;;;6278709;28;19921;-76
2021/05/23 15:35:00;;;;;;;0.38;0.30;;;28.50;24.50;;;;;;6278746;28;19919;-77
2021/05/23 15:38:02;;;;;;;1.17;0.40;;;28.30;24.70;;;;;;6286566;28;20056;-77
2021/05/23 15:41:04;;;;;;;0.65;0.32;;;28.00;25.00;;;;;;6272361;28;20029;-77
2021/05/23 15:44:05;;;;;;;5.47;0.65;;;27.70;25.30;;;;;;6250248;28;20112;-77
2021/05/23 15:47:11;;;;;;;1.27;0.40;;;27.70;25.40;;;;;;6279548;28;20036;-76
2021/05/23 15:50:17;;;;;;;0.60;0.35;;;27.90;25.30;;;;;;6257754;28;20037;-76
2021/05/23 15:53:19;;;;;;;1.30;0.43;;;28.10;24.80;;;;;;6264605;28;20127;-77
2021/05/23 15:56:26;;;;;;;2.38;0.30;;;28.40;24.60;;;;;;6280978;28;20029;-77
2021/05/23 15:59:35;;;;;;;1.25;0.50;;;29.00;24.20;;;;;;6293637;28;20036;-77
2021/05/23 16:02:57;;;;;;;2.47;0.32;;;29.20;23.80;;;;;;6286419;28;20052;-77
2021/05/23 16:05:58;;;;;;;1.13;0.50;;;29.40;23.80;;;;;;6282813;28;20032;-79
2021/05/23 16:09:00;;;;;;;1.17;0.50;;;29.20;23.80;;;;;;6280776;28;20365;-77